createdAt,value
2023-09-06T00:02:20.341Z,97098.94
2023-09-06T00:04:47.324Z,97099.78
2023-09-06T00:07:14.166Z,97097.19
2023-09-06T00:09:40.887Z,97096.34
2023-09-06T00:12:07.683Z,97095.88
2023-09-06T00:14:35.677Z,97095.25
2023-09-06T00:17:02.410Z,97103.16
2023-09-06T00:19:29.104Z,97103.00
2023-09-06T00:21:55.835Z,97106.69
2023-09-06T00:24:22.540Z,97103.50
2023-09-06T00:26:49.220Z,97106.69
2023-09-06T00:29:15.951Z,97100.91
2023-09-06T00:31:44.016Z,97105.72
2023-09-06T00:34:10.708Z,97103.75
2023-09-06T00:36:37.542Z,97116.63
2023-09-06T00:39:04.667Z,97107.28
2023-09-06T00:41:31.347Z,97115.63
2023-09-06T00:43:58.026Z,97116.63
2023-09-06T00:46:24.767Z,97110.50
2023-09-06T00:48:52.825Z,97116.16
2023-09-06T00:51:19.566Z,97117.28
2023-09-06T00:53:46.221Z,97122.28
2023-09-06T00:56:12.896Z,97108.63
2023-09-06T00:58:39.559Z,97112.66
2023-09-06T01:01:06.450Z,97108.97
2023-09-06T01:03:33.400Z,97104.97
2023-09-06T01:06:05.738Z,97106.63
2023-09-06T01:08:36.156Z,97103.38
2023-09-06T01:11:15.158Z,97105.78
2023-09-06T01:13:41.959Z,97095.16
2023-09-06T01:16:09.014Z,97101.13
2023-09-06T01:18:35.899Z,97103.38
2023-09-06T01:21:06.155Z,97099.06
2023-09-06T01:23:35.804Z,97099.41
2023-09-06T01:26:02.502Z,97107.31
2023-09-06T01:28:29.632Z,97111.13
2023-09-06T01:30:56.688Z,97111.75
2023-09-06T01:33:23.473Z,97106.94
2023-09-06T01:35:50.617Z,97104.53
2023-09-06T01:38:17.266Z,97119.78
2023-09-06T01:40:45.477Z,97109.03
2023-09-06T01:43:12.211Z,97107.25
2023-09-06T01:45:44.980Z,97111.09
2023-09-06T01:48:11.726Z,97108.38
2023-09-06T01:50:38.473Z,97110.78
2023-09-06T01:53:05.172Z,97100.19
2023-09-06T01:55:31.855Z,97094.91
2023-09-06T01:57:59.913Z,97097.47
2023-09-06T02:00:26.650Z,97098.75
2023-09-06T02:02:53.450Z,97101.63
2023-09-06T02:05:20.338Z,97097.78
2023-09-06T02:07:47.458Z,97092.47
2023-09-06T02:10:14.175Z,97090.25
2023-09-06T02:12:40.912Z,97096.19
2023-09-06T02:15:09.811Z,97093.78
2023-09-06T02:17:36.551Z,97096.19
2023-09-06T02:20:03.537Z,97100.22
2023-09-06T02:22:30.183Z,97101.66
2023-09-06T02:24:57.000Z,97094.75
2023-09-06T02:27:23.673Z,97103.22
2023-09-06T02:29:50.411Z,97104.22
2023-09-06T02:32:18.432Z,97102.94
2023-09-06T02:34:45.140Z,97099.38
2023-09-06T02:37:11.924Z,97096.81
2023-09-06T02:39:38.679Z,97100.19
2023-09-06T02:42:05.467Z,97102.59
2023-09-06T02:44:32.295Z,97101.81
2023-09-06T02:46:58.983Z,97097.78
2023-09-06T02:49:26.970Z,97100.03
2023-09-06T02:51:53.617Z,97098.44
2023-09-06T02:54:20.262Z,97099.88
2023-09-06T02:56:46.944Z,97106.47
2023-09-06T02:59:13.656Z,97105.34
2023-09-06T03:01:40.421Z,97103.56
2023-09-06T03:04:07.697Z,97107.56
2023-09-06T03:06:35.741Z,97101.63
2023-09-06T03:09:06.071Z,97103.09
2023-09-06T03:11:32.838Z,97111.75
2023-09-06T03:13:59.501Z,97113.94
2023-09-06T03:16:26.269Z,97117.31
2023-09-06T03:18:52.984Z,97113.56
2023-09-06T03:21:20.013Z,97116.28
2023-09-06T03:23:48.064Z,97116.38
2023-09-06T03:26:15.533Z,97111.72
2023-09-06T03:28:42.852Z,97117.50
2023-09-06T03:31:15.630Z,97119.53
2023-09-06T03:33:42.421Z,97117.19
2023-09-06T03:36:09.513Z,97115.59
2023-09-06T03:38:36.983Z,97113.16
2023-09-06T03:41:05.059Z,97114.78
2023-09-06T03:43:31.996Z,97119.59
2023-09-06T03:45:59.330Z,97121.38
2023-09-06T03:48:26.224Z,97116.09
2023-09-06T03:50:55.311Z,97122.38
2023-09-06T03:53:24.371Z,97127.81
2023-09-06T03:55:52.658Z,97127.16
2023-09-06T03:58:21.051Z,97130.22
2023-09-06T04:00:48.179Z,97132.13
2023-09-06T04:03:24.708Z,97134.88
2023-09-06T04:05:52.689Z,97130.31
2023-09-06T04:08:21.158Z,97138.28
2023-09-06T04:10:53.405Z,97134.84
2023-09-06T04:13:21.422Z,97136.94
2023-09-06T04:15:48.745Z,97133.91
2023-09-06T04:18:15.809Z,97129.25
2023-09-06T04:20:43.813Z,97134.25
2023-09-06T04:23:10.834Z,97133.59
2023-09-06T04:25:41.060Z,97132.16
2023-09-06T04:28:08.492Z,97141.50
2023-09-06T04:30:38.005Z,97137.97
2023-09-06T04:33:05.242Z,97139.16
2023-09-06T04:35:33.853Z,97136.03
2023-09-06T04:38:01.170Z,97136.28
2023-09-06T04:40:29.210Z,97141.84
2023-09-06T04:42:55.963Z,97140.34
2023-09-06T04:45:23.253Z,97138.94
2023-09-06T04:47:51.452Z,97141.97
2023-09-06T04:50:18.275Z,97142.09
2023-09-06T04:52:45.994Z,97144.94
2023-09-06T04:55:13.184Z,97149.06
2023-09-06T04:57:40.189Z,97138.75
2023-09-06T05:00:09.562Z,97140.47
2023-09-06T05:02:36.457Z,97140.03
2023-09-06T05:05:05.227Z,97140.84
2023-09-06T05:07:32.079Z,97145.78
2023-09-06T05:10:01.004Z,97148.81
2023-09-06T05:12:27.756Z,97149.91
2023-09-06T05:14:54.458Z,97146.38
2023-09-06T05:17:21.132Z,97152.63
2023-09-06T05:19:51.157Z,97146.06
2023-09-06T05:22:20.094Z,97152.81
2023-09-06T05:24:46.824Z,97156.84
2023-09-06T05:27:14.237Z,97162.19
2023-09-06T05:29:40.881Z,97158.63
2023-09-06T05:32:07.731Z,97152.00
2023-09-06T05:34:34.498Z,97158.75
2023-09-06T05:37:04.802Z,97157.34
2023-09-06T05:39:32.809Z,97158.25
2023-09-06T05:42:00.421Z,97160.88
2023-09-06T05:44:27.205Z,97161.34
2023-09-06T05:46:53.951Z,97152.09
2023-09-06T05:49:22.329Z,97147.66
2023-09-06T05:51:49.193Z,97167.31
2023-09-06T05:54:16.355Z,97164.69
2023-09-06T05:56:46.354Z,97166.41
2023-09-06T05:59:13.315Z,97164.19
2023-09-06T06:01:40.401Z,97166.75
2023-09-06T06:04:07.215Z,97161.09
2023-09-06T06:06:34.063Z,97161.81
2023-09-06T06:09:00.792Z,97171.34
2023-09-06T06:11:28.527Z,97173.84
2023-09-06T06:14:09.824Z,97173.44
2023-09-06T06:16:38.393Z,97177.69
2023-09-06T06:19:05.108Z,97177.88
2023-09-06T06:21:31.852Z,97172.75
2023-09-06T06:23:58.640Z,97174.25
2023-09-06T06:26:25.399Z,97175.84
2023-09-06T06:28:52.513Z,97181.50
2023-09-06T06:31:20.629Z,97183.47
2023-09-06T06:33:47.333Z,97183.81
2023-09-06T06:36:13.993Z,97187.72
2023-09-06T06:38:40.665Z,97184.22
2023-09-06T06:41:14.055Z,97188.13
2023-09-06T06:43:40.812Z,97180.28
2023-09-06T06:46:21.900Z,97176.88
2023-09-06T06:48:49.919Z,97182.56
2023-09-06T06:51:16.603Z,97185.31
2023-09-06T06:56:09.877Z,97175.50
2023-09-06T06:58:36.596Z,97178.03
2023-09-06T07:01:03.355Z,97176.84
2023-09-06T07:03:30.090Z,97177.84
2023-09-06T07:05:58.251Z,97179.81
2023-09-06T07:08:24.980Z,97184.72
2023-09-06T07:10:51.707Z,97186.13
2023-09-06T07:13:18.441Z,97188.66
2023-09-06T07:15:45.209Z,97183.81
2023-09-06T07:18:12.028Z,97188.69
2023-09-06T07:20:38.851Z,97176.91
2023-09-06T07:23:06.904Z,97178.81
2023-09-06T07:25:33.625Z,97182.31
2023-09-06T07:28:00.337Z,97185.16
2023-09-06T07:30:27.034Z,97181.69
2023-09-06T07:32:53.835Z,97186.25
2023-09-06T07:35:20.629Z,97176.50
2023-09-06T07:37:47.517Z,97183.63
2023-09-06T07:40:15.681Z,97176.78
2023-09-06T07:42:42.404Z,97173.25
2023-09-06T07:45:10.002Z,97175.69
2023-09-06T07:47:36.875Z,97171.19
2023-09-06T07:50:03.966Z,97172.34
2023-09-06T07:52:30.629Z,97173.97
2023-09-06T07:54:59.060Z,97175.44
2023-09-06T07:57:27.082Z,97172.41
2023-09-06T07:59:53.778Z,97174.19
2023-09-06T08:02:20.552Z,97177.28
2023-09-06T08:04:48.371Z,97178.56
2023-09-06T08:07:15.262Z,97172.97
2023-09-06T08:09:41.926Z,97176.97
2023-09-06T08:12:08.656Z,97174.22
2023-09-06T08:14:36.676Z,97171.19
2023-09-06T08:17:03.745Z,97171.97
2023-09-06T08:19:30.454Z,97167.78
2023-09-06T08:21:57.114Z,97166.81
2023-09-06T08:24:23.817Z,97170.50
2023-09-06T08:26:50.543Z,97162.44
2023-09-06T08:29:17.273Z,97171.63
2023-09-06T08:31:45.408Z,97162.41
2023-09-06T08:34:12.173Z,97161.22
2023-09-06T08:36:38.847Z,97161.84
2023-09-06T08:39:05.631Z,97159.59
2023-09-06T08:41:32.515Z,97164.44
2023-09-06T08:43:59.224Z,97160.53
2023-09-06T08:46:28.353Z,97158.91
2023-09-06T08:48:56.596Z,97164.34
2023-09-06T08:51:23.669Z,97164.38
2023-09-06T08:53:50.344Z,97163.72
2023-09-06T08:56:17.005Z,97163.84
2023-09-06T08:58:43.756Z,97161.25
2023-09-06T09:01:10.622Z,97159.19
2023-09-06T09:03:37.520Z,97162.16
2023-09-06T09:06:05.691Z,97171.78
2023-09-06T09:08:32.386Z,97162.44
2023-09-06T09:11:09.163Z,97162.38
2023-09-06T09:13:35.880Z,97166.59
2023-09-06T09:16:08.586Z,97165.16
2023-09-06T09:18:36.085Z,97161.78
2023-09-06T09:21:02.880Z,97158.19
2023-09-06T09:23:31.251Z,97162.72
2023-09-06T09:25:58.103Z,97160.28
2023-09-06T09:28:24.991Z,97159.50
2023-09-06T09:30:51.813Z,97149.09
2023-09-06T09:33:19.250Z,97155.13
2023-09-06T09:35:47.653Z,97153.25
2023-09-06T09:38:14.350Z,97151.75
2023-09-06T09:40:52.791Z,97145.78
2023-09-06T09:43:25.022Z,97148.75
2023-09-06T09:45:51.793Z,97138.25
2023-09-06T09:48:18.812Z,97134.19
2023-09-06T09:50:45.929Z,97138.53
2023-09-06T09:53:20.346Z,97135.50
2023-09-06T09:55:54.046Z,97138.16
2023-09-06T09:58:20.899Z,97123.88
2023-09-06T10:00:47.610Z,97132.81
2023-09-06T10:03:14.514Z,97131.47
2023-09-06T10:05:41.404Z,97129.06
2023-09-06T10:08:08.864Z,97130.53
2023-09-06T10:10:36.215Z,97133.25
2023-09-06T10:13:04.551Z,97123.38
2023-09-06T10:15:31.214Z,97128.09
2023-09-06T10:17:57.966Z,97121.13
2023-09-06T10:20:24.721Z,97124.47
2023-09-06T10:22:52.070Z,97130.31
2023-09-06T10:25:18.927Z,97124.91
2023-09-06T10:27:46.217Z,97123.03
2023-09-06T10:30:14.608Z,97118.41
2023-09-06T10:32:41.358Z,97121.63
2023-09-06T10:35:19.644Z,97122.28
2023-09-06T10:38:03.034Z,97117.94
2023-09-06T10:41:02.957Z,97114.97
2023-09-06T10:43:30.208Z,97119.88
2023-09-06T10:45:58.387Z,97113.38
2023-09-06T10:48:25.613Z,97101.25
2023-09-06T10:51:04.350Z,97104.69
2023-09-06T10:53:31.218Z,97106.88
2023-09-06T10:55:57.924Z,97092.94
2023-09-06T10:58:24.670Z,97099.56
2023-09-06T11:01:16.194Z,97098.53
2023-09-06T11:03:47.008Z,97094.31
2023-09-06T11:06:13.704Z,97100.38
2023-09-06T11:08:40.371Z,97090.09
2023-09-06T11:11:08.141Z,97091.38
2023-09-06T11:13:34.964Z,97088.88
2023-09-06T11:16:02.257Z,97094.09
2023-09-06T11:18:30.896Z,97091.34
2023-09-06T11:20:58.091Z,97091.31
2023-09-06T11:23:24.763Z,97086.78
2023-09-06T11:25:55.739Z,97085.06
2023-09-06T11:28:22.469Z,97075.94
2023-09-06T11:30:49.500Z,97076.25
2023-09-06T11:33:16.558Z,97075.13
2023-09-06T11:35:45.365Z,97070.53
2023-09-06T11:38:12.060Z,97065.47
2023-09-06T11:40:38.740Z,97067.06
2023-09-06T11:43:06.484Z,97065.56
2023-09-06T11:45:33.421Z,97063.88
2023-09-06T11:48:00.203Z,97059.09
2023-09-06T11:50:26.871Z,97063.56
2023-09-06T11:52:58.408Z,97064.84
2023-09-06T11:55:25.778Z,97060.03
2023-09-06T11:57:52.439Z,97051.69
2023-09-06T12:00:19.323Z,97057.53
2023-09-06T12:02:46.062Z,97060.03
2023-09-06T12:05:12.785Z,97045.53
2023-09-06T12:07:39.441Z,97051.81
2023-09-06T12:10:08.108Z,97049.88
2023-09-06T12:12:35.293Z,97047.91
2023-09-06T12:15:02.114Z,97054.09
2023-09-06T12:17:28.869Z,97051.81
2023-09-06T12:19:58.842Z,97040.03
2023-09-06T12:22:25.560Z,97044.59
2023-09-06T12:24:52.203Z,97031.97
2023-09-06T12:27:20.275Z,97029.88
2023-09-06T12:29:46.973Z,97032.78
2023-09-06T12:32:13.825Z,97038.75
2023-09-06T12:34:41.052Z,97029.88
2023-09-06T12:37:07.795Z,97024.41
2023-09-06T12:39:34.529Z,97029.41
2023-09-06T12:42:01.235Z,97024.72
2023-09-06T12:44:29.390Z,97024.53
2023-09-06T12:46:56.168Z,97014.78
2023-09-06T12:49:22.874Z,97015.84
2023-09-06T12:51:49.530Z,97025.69
2023-09-06T12:54:16.201Z,97005.91
2023-09-06T12:56:42.888Z,97013.34
2023-09-06T12:59:09.737Z,97012.09
2023-09-06T13:01:37.847Z,97015.03
2023-09-06T13:04:04.976Z,97010.50
2023-09-06T13:06:31.764Z,97002.84
2023-09-06T13:08:58.420Z,96996.47
2023-09-06T13:11:25.117Z,96992.03
2023-09-06T13:13:51.786Z,96991.13
2023-09-06T13:16:18.540Z,96995.03
2023-09-06T13:18:46.680Z,96992.72
2023-09-06T13:21:13.540Z,96990.41
2023-09-06T13:23:40.596Z,96992.53
2023-09-06T13:26:07.276Z,96987.63
2023-09-06T13:28:33.954Z,96984.19
2023-09-06T13:31:00.679Z,96983.28
2023-09-06T13:33:29.412Z,96972.91
2023-09-06T13:35:57.847Z,96970.31
2023-09-06T13:38:24.587Z,96969.72
2023-09-06T13:40:51.331Z,96963.47
2023-09-06T13:43:18.077Z,96956.03
2023-09-06T13:45:44.794Z,96961.06
2023-09-06T13:48:11.676Z,96960.69
2023-09-06T13:50:38.403Z,96955.22
2023-09-06T13:53:06.421Z,96955.59
2023-09-06T13:55:33.143Z,96951.66
2023-09-06T13:57:59.835Z,96954.31
2023-09-06T14:00:26.633Z,96947.78
2023-09-06T14:02:53.472Z,96945.81
2023-09-06T14:05:20.323Z,96943.28
2023-09-06T14:07:47.105Z,96942.19
2023-09-06T14:10:15.341Z,96939.16
2023-09-06T14:12:42.008Z,96939.69
2023-09-06T14:15:09.621Z,96943.28
2023-09-06T14:17:36.388Z,96942.66
2023-09-06T14:20:03.775Z,96938.00
2023-09-06T14:22:30.522Z,96934.78
2023-09-06T14:24:57.180Z,96933.28
2023-09-06T14:27:25.240Z,96933.41
2023-09-06T14:29:52.368Z,96932.63
2023-09-06T14:32:19.103Z,96930.78
2023-09-06T14:34:45.801Z,96926.78
2023-09-06T14:37:12.517Z,96923.81
2023-09-06T14:39:39.241Z,96923.50
2023-09-06T14:42:06.145Z,96929.41
2023-09-06T14:44:34.286Z,96921.47
2023-09-06T14:47:01.017Z,96926.69
2023-09-06T14:49:29.461Z,96918.84
2023-09-06T14:51:56.132Z,96923.75
2023-09-06T14:54:22.808Z,96919.56
2023-09-06T14:56:49.557Z,96918.09
2023-09-06T14:59:18.608Z,96921.13
2023-09-06T15:01:46.640Z,96921.09
2023-09-06T15:04:13.396Z,96913.34
2023-09-06T15:06:57.946Z,96906.75
2023-09-06T15:09:25.289Z,96908.38
2023-09-06T15:11:52.525Z,96907.97
2023-09-06T15:14:19.232Z,96903.91
2023-09-06T15:16:47.657Z,96904.22
2023-09-06T15:19:14.533Z,96916.22
2023-09-06T15:21:41.280Z,96901.34
2023-09-06T15:24:08.199Z,96904.63
2023-09-06T15:26:34.861Z,96908.22
2023-09-06T15:29:01.586Z,96905.59
2023-09-06T15:31:28.255Z,96898.50
2023-09-06T15:33:56.409Z,96902.19
2023-09-06T15:36:23.151Z,96907.88
2023-09-06T15:38:49.919Z,96897.44
2023-09-06T15:41:16.586Z,96897.03
2023-09-06T15:43:43.314Z,96901.94
2023-09-06T15:46:10.075Z,96898.56
2023-09-06T15:48:37.006Z,96898.25
2023-09-06T15:51:05.164Z,96901.50
2023-09-06T15:53:32.101Z,96903.13
2023-09-06T15:55:58.835Z,96898.41
2023-09-06T15:58:25.616Z,96909.44
2023-09-06T16:00:52.303Z,96910.25
2023-09-06T16:03:19.083Z,96917.00
2023-09-06T16:05:45.896Z,96907.09
2023-09-06T16:08:13.985Z,96907.91
2023-09-06T16:10:40.685Z,96899.16
2023-09-06T16:13:07.360Z,96901.19
2023-09-06T16:15:34.034Z,96905.94
2023-09-06T16:18:00.912Z,96903.97
2023-09-06T16:20:27.654Z,96903.16
2023-09-06T16:22:54.345Z,96907.50
2023-09-06T16:25:22.341Z,96901.56
2023-09-06T16:27:49.069Z,96899.91
2023-09-06T16:30:15.884Z,96903.44
2023-09-06T16:32:42.892Z,96907.41
2023-09-06T16:35:09.952Z,96913.34
2023-09-06T16:37:37.060Z,96908.19
2023-09-06T16:40:04.423Z,96903.84
2023-09-06T16:42:32.490Z,96908.19
2023-09-06T16:44:59.288Z,96903.16
2023-09-06T16:47:25.964Z,96904.84
2023-09-06T16:49:52.645Z,96898.69
2023-09-06T16:52:19.396Z,96895.97
2023-09-06T16:54:46.195Z,96902.31
2023-09-06T16:57:12.915Z,96903.94
2023-09-06T16:59:40.968Z,96899.28
2023-09-06T17:02:07.734Z,96892.59
2023-09-06T17:04:34.403Z,96894.47
2023-09-06T17:07:01.187Z,96893.19
2023-09-06T17:09:27.845Z,96898.19
2023-09-06T17:11:54.558Z,96890.44
2023-09-06T17:14:21.216Z,96900.16
2023-09-06T17:16:49.480Z,96896.41
2023-09-06T17:19:16.332Z,96897.03
2023-09-06T17:21:43.100Z,96897.72
2023-09-06T17:24:10.096Z,96902.28
2023-09-06T17:26:37.038Z,96904.50
2023-09-06T17:29:03.808Z,96903.50
2023-09-06T17:31:30.659Z,96910.47
2023-09-06T17:33:58.745Z,96908.75
2023-09-06T17:36:25.405Z,96913.44
2023-09-06T17:38:52.147Z,96911.75
2023-09-06T17:41:18.916Z,96909.69
2023-09-06T17:43:45.631Z,96917.50
2023-09-06T17:46:12.329Z,96913.03
2023-09-06T17:48:39.328Z,96917.25
2023-09-06T17:51:07.526Z,96920.91
2023-09-06T17:53:34.946Z,96913.34
2023-09-06T17:56:02.270Z,96917.94
2023-09-06T17:58:29.245Z,96916.66
2023-09-06T18:00:56.096Z,96924.44
2023-09-06T18:03:22.993Z,96918.50
2023-09-06T18:05:50.792Z,96927.50
2023-09-06T18:08:19.000Z,96927.00
2023-09-06T18:10:45.719Z,96921.69
2023-09-06T18:13:12.456Z,96917.28
2023-09-06T18:15:39.378Z,96929.81
2023-09-06T18:18:06.202Z,96925.00
2023-09-06T18:20:33.029Z,96927.25
2023-09-06T18:22:59.717Z,96937.19
2023-09-06T18:25:27.708Z,96933.44
2023-09-06T18:27:54.369Z,96929.53
2023-09-06T18:30:22.112Z,96927.78
2023-09-06T18:32:49.678Z,96928.00
2023-09-06T18:35:16.433Z,96930.75
2023-09-06T18:37:43.243Z,96937.19
2023-09-06T18:40:10.548Z,96936.16
2023-09-06T18:42:38.531Z,96938.13
2023-09-06T18:45:06.305Z,96934.34
2023-09-06T18:47:33.178Z,96946.06
2023-09-06T18:50:00.143Z,96947.06
2023-09-06T18:52:26.868Z,96959.84
2023-09-06T18:54:53.559Z,96960.63
2023-09-06T18:57:20.210Z,96964.81
2023-09-06T18:59:48.325Z,96967.47
2023-09-06T19:02:15.082Z,96964.47
2023-09-06T19:04:43.122Z,96969.00
2023-09-06T19:07:09.770Z,96974.06
2023-09-06T19:09:36.433Z,96972.75
2023-09-06T19:12:03.312Z,96971.50
2023-09-06T19:14:30.123Z,96976.13
2023-09-06T19:16:58.259Z,96975.94
2023-09-06T19:19:24.995Z,96977.97
2023-09-06T19:21:51.659Z,96979.13
2023-09-06T19:24:18.335Z,96978.69
2023-09-06T19:26:45.021Z,96981.78
2023-09-06T19:29:11.770Z,96980.28
2023-09-06T19:31:38.444Z,96975.41
2023-09-06T19:34:06.544Z,96983.13
2023-09-06T19:36:33.247Z,96978.22
2023-09-06T19:38:59.917Z,96975.94
2023-09-06T19:41:26.631Z,96975.47
2023-09-06T19:43:53.333Z,96978.69
2023-09-06T19:46:20.049Z,96979.38
2023-09-06T19:49:03.524Z,96985.84
2023-09-06T19:51:34.066Z,96984.94
2023-09-06T19:54:00.698Z,96986.94
2023-09-06T19:56:27.468Z,96982.34
2023-09-06T19:58:54.149Z,96991.19
2023-09-06T20:01:21.288Z,96989.28
2023-09-06T20:03:48.103Z,96991.03
2023-09-06T20:06:14.912Z,96990.38
2023-09-06T20:08:42.976Z,96984.53
2023-09-06T20:11:09.674Z,96984.28
2023-09-06T20:13:36.338Z,96988.06
2023-09-06T20:16:03.131Z,96983.53
2023-09-06T20:18:30.009Z,96996.25
2023-09-06T20:20:56.937Z,96982.00
2023-09-06T20:23:23.729Z,96977.75
2023-09-06T20:25:54.540Z,96979.25
2023-09-06T20:28:21.260Z,96980.19
2023-09-06T20:30:47.947Z,96985.28
2023-09-06T20:33:14.745Z,96987.38
2023-09-06T20:35:42.996Z,96987.16
2023-09-06T20:38:09.730Z,96987.50
2023-09-06T20:40:36.600Z,96990.81
2023-09-06T20:43:04.696Z,96988.31
2023-09-06T20:45:31.485Z,96994.13
2023-09-06T20:47:58.236Z,97003.16
2023-09-06T20:50:24.929Z,96991.28
2023-09-06T20:52:51.569Z,97006.94
2023-09-06T20:55:18.247Z,97005.66
2023-09-06T20:57:44.966Z,97003.16
2023-09-06T21:00:13.353Z,97002.81
2023-09-06T21:02:40.113Z,97002.59
2023-09-06T21:05:07.275Z,97009.44
2023-09-06T21:07:33.974Z,97005.44
2023-09-06T21:10:00.692Z,97006.50
2023-09-06T21:12:27.382Z,97015.94
2023-09-06T21:14:54.176Z,97020.47
2023-09-06T21:17:22.263Z,97015.22
2023-09-06T21:19:49.223Z,97018.97
2023-09-06T21:22:15.900Z,97017.81
2023-09-06T21:24:42.645Z,97017.09
2023-09-06T21:27:09.323Z,97020.44
2023-09-06T21:29:35.969Z,97024.19
2023-09-06T21:32:02.721Z,97026.63
2023-09-06T21:34:30.852Z,97031.81
2023-09-06T21:36:57.614Z,97020.03
2023-09-06T21:39:24.338Z,97023.56
2023-09-06T21:41:50.988Z,97028.75
2023-09-06T21:44:17.667Z,97028.56
2023-09-06T21:46:44.328Z,97023.84
2023-09-06T21:49:10.996Z,97022.50
2023-09-06T21:51:38.974Z,97017.47
2023-09-06T21:54:05.809Z,97015.81
2023-09-06T21:56:32.575Z,97028.28
2023-09-06T21:58:59.292Z,97023.09
2023-09-06T22:01:26.054Z,97026.69
2023-09-06T22:04:11.304Z,97031.50
2023-09-06T22:06:57.956Z,97033.25
2023-09-06T22:09:44.422Z,97028.03
2023-09-06T22:12:29.933Z,97028.38
2023-09-06T22:14:56.606Z,97035.50
2023-09-06T22:17:23.418Z,97035.66
2023-09-06T22:19:50.180Z,97037.13
2023-09-06T22:22:18.233Z,97043.47
2023-09-06T22:24:44.974Z,97044.72
2023-09-06T22:27:11.666Z,97046.47
2023-09-06T22:29:38.457Z,97039.66
2023-09-06T22:32:05.933Z,97042.03
2023-09-06T22:34:32.670Z,97042.97
2023-09-06T22:36:59.426Z,97048.13
2023-09-06T22:39:27.473Z,97054.19
2023-09-06T22:41:54.141Z,97050.31
2023-09-06T22:44:20.846Z,97055.16
2023-09-06T22:46:47.599Z,97045.00
2023-09-06T22:49:14.418Z,97047.06
2023-09-06T22:51:41.103Z,97048.84
2023-09-06T22:54:07.842Z,97051.13
2023-09-06T22:56:35.831Z,97050.72
2023-09-06T22:59:02.905Z,97049.84
2023-09-06T23:01:29.628Z,97055.31
2023-09-06T23:03:56.443Z,97056.47
2023-09-06T23:06:23.539Z,97055.94
2023-09-06T23:08:50.236Z,97055.78
2023-09-06T23:11:16.951Z,97058.13
2023-09-06T23:13:44.922Z,97059.59
2023-09-06T23:16:11.629Z,97062.22
2023-09-06T23:18:38.698Z,97060.28
2023-09-06T23:21:05.365Z,97055.75
2023-09-06T23:23:32.012Z,97062.34
2023-09-06T23:25:58.702Z,97063.94
2023-09-06T23:28:25.381Z,97060.66
2023-09-06T23:30:54.523Z,97057.75
2023-09-06T23:33:21.356Z,97069.41
2023-09-06T23:35:48.039Z,97060.00
2023-09-06T23:38:14.669Z,97063.00
2023-09-06T23:40:41.315Z,97065.06
2023-09-06T23:43:07.982Z,97059.22
2023-09-06T23:45:44.156Z,97054.25
2023-09-06T23:48:12.177Z,97055.88
2023-09-06T23:50:38.826Z,97043.72
2023-09-06T23:53:05.497Z,97045.41
2023-09-06T23:55:34.412Z,97045.78
2023-09-06T23:58:01.105Z,97044.34
